N634SJ KJWN-
Flight info
| Callsign | N634SJ |
|---|---|
| Flight time | N/A |
| Altitude | VFR |
| Route | VFR SW |
| Aircraft | C172/L-DOV/C |
Departure
| Time | 2026-04-12 19:51 |
|---|---|
| Airport | John C Tune Airport (KJWN) |
Arrival
| Time | N/A |
|---|---|
| Airport | - |
| Time | Latitude | Longitude | Altitude | Speed | Heading |
|---|---|---|---|---|---|
| 2026-04-12 19:45 | 36.17964 | -86.88546 | 476 ft | 8 kts | 10° |
| 2026-04-12 19:46 | 36.18019 | -86.88586 | 478 ft | 11 kts | 314° |
| 2026-04-12 19:46 | 36.18079 | -86.88583 | 474 ft | 7 kts | 14° |
| 2026-04-12 19:46 | 36.18118 | -86.88571 | 481 ft | 4 kts | 15° |
| 2026-04-12 19:46 | 36.18137 | -86.88564 | 482 ft | 1 kts | 16° |
| 2026-04-12 19:47 | 36.18138 | -86.88563 | 477 ft | 1 kts | 16° |
| 2026-04-12 19:47 | 36.18156 | -86.88559 | 482 ft | 8 kts | 10° |
| 2026-04-12 19:47 | 36.18249 | -86.88526 | 485 ft | 19 kts | 12° |
| 2026-04-12 19:47 | 36.18373 | -86.88487 | 490 ft | 14 kts | 15° |
| 2026-04-12 19:48 | 36.18522 | -86.88439 | 496 ft | 20 kts | 14° |
| 2026-04-12 19:48 | 36.18667 | -86.88391 | 501 ft | 23 kts | 15° |
| 2026-04-12 19:48 | 36.18783 | -86.88357 | 508 ft | 5 kts | 349° |
| 2026-04-12 19:48 | 36.18788 | -86.88358 | 508 ft | 0 kts | 336° |
| 2026-04-12 19:49 | 36.18791 | -86.88361 | 508 ft | 2 kts | 325° |
| 2026-04-12 19:49 | 36.18808 | -86.88390 | 509 ft | 9 kts | 287° |
| 2026-04-12 19:49 | 36.18799 | -86.88486 | 509 ft | 13 kts | 212° |
| 2026-04-12 19:50 | 36.18650 | -86.88540 | 502 ft | 43 kts | 194° |
| 2026-04-12 19:50 | 36.18268 | -86.88667 | 594 ft | 62 kts | 197° |
| 2026-04-12 19:50 | 36.17812 | -86.88817 | 735 ft | 71 kts | 194° |
| 2026-04-12 19:50 | 36.17321 | -86.88944 | 943 ft | 75 kts | 204° |
| 2026-04-12 19:51 | 36.17094 | -86.89546 | 1127 ft | 97 kts | 269° |
| 2026-04-12 19:51 | 36.17310 | -86.90384 | 1338 ft | 102 kts | 274° |
| 2026-04-12 19:51 | 36.17549 | -86.91234 | 1484 ft | 109 kts | 278° |
| 2026-04-12 19:51 | 36.17820 | -86.92127 | 1562 ft | 115 kts | 279° |
| 2026-04-12 19:52 | 36.18138 | -86.93073 | 1580 ft | 124 kts | 284° |
| 2026-04-12 19:52 | 36.18517 | -86.94004 | 1596 ft | 120 kts | 290° |
| 2026-04-12 19:52 | 36.18934 | -86.94891 | 1573 ft | 118 kts | 295° |
| 2026-04-12 19:52 | 36.19471 | -86.95676 | 1495 ft | 125 kts | 319° |
| 2026-04-12 19:53 | 36.20283 | -86.96114 | 1484 ft | 131 kts | 343° |
| 2026-04-12 19:53 | 36.21175 | -86.96329 | 1536 ft | 129 kts | 348° |
| 2026-04-12 19:53 | 36.22096 | -86.96380 | 1389 ft | 136 kts | 359° |
| 2026-04-12 19:53 | 36.23033 | -86.96331 | 1223 ft | 134 kts | 360° |
| 2026-04-12 19:54 | 36.23919 | -86.96270 | 1294 ft | 124 kts | 1° |
| 2026-04-12 19:54 | 36.24768 | -86.96141 | 1198 ft | 124 kts | 6° |
| 2026-04-12 19:54 | 36.25572 | -86.95970 | 1246 ft | 119 kts | 356° |
| 2026-04-12 19:54 | 36.26412 | -86.95926 | 1248 ft | 122 kts | 1° |
| 2026-04-12 19:55 | 36.27269 | -86.95923 | 1244 ft | 124 kts | 352° |
| 2026-04-12 19:55 | 36.28128 | -86.95934 | 1313 ft | 122 kts | 350° |
| 2026-04-12 19:55 | 36.28959 | -86.95990 | 1350 ft | 118 kts | 355° |
| 2026-04-12 19:55 | 36.29760 | -86.95951 | 1406 ft | 115 kts | 1° |
| 2026-04-12 19:56 | 36.30592 | -86.95878 | 1428 ft | 122 kts | 1° |
| 2026-04-12 19:56 | 36.31450 | -86.95804 | 1458 ft | 125 kts | 2° |
| 2026-04-12 19:56 | 36.32290 | -86.95854 | 1676 ft | 120 kts | 354° |
| 2026-04-12 19:56 | 36.33140 | -86.95948 | 1836 ft | 121 kts | 354° |
| 2026-04-12 19:57 | 36.33964 | -86.96114 | 1981 ft | 120 kts | 344° |
| 2026-04-12 19:57 | 36.34798 | -86.96286 | 2084 ft | 124 kts | 348° |
| 2026-04-12 19:57 | 36.35647 | -86.96434 | 2183 ft | 124 kts | 340° |
| 2026-04-12 19:57 | 36.36524 | -86.96603 | 2266 ft | 130 kts | 354° |
| 2026-04-12 19:58 | 36.37445 | -86.96661 | 2308 ft | 134 kts | 356° |
| 2026-04-12 19:58 | 36.38387 | -86.96772 | 2366 ft | 140 kts | 354° |
| 2026-04-12 19:58 | 36.39362 | -86.96871 | 2418 ft | 142 kts | 352° |
| 2026-04-12 19:58 | 36.40334 | -86.96958 | 2484 ft | 141 kts | 353° |
| 2026-04-12 19:59 | 36.41300 | -86.97070 | 2499 ft | 140 kts | 353° |
| 2026-04-12 19:59 | 36.42295 | -86.97162 | 2510 ft | 148 kts | 354° |
| 2026-04-12 19:59 | 36.43324 | -86.97243 | 2500 ft | 147 kts | 353° |
| 2026-04-12 19:59 | 36.44327 | -86.97178 | 2499 ft | 147 kts | 28° |
| 2026-04-12 20:00 | 36.44853 | -86.96251 | 2511 ft | 128 kts | 95° |
| 2026-04-12 20:00 | 36.44829 | -86.95147 | 2502 ft | 126 kts | 113° |
| 2026-04-12 20:00 | 36.44467 | -86.94215 | 2509 ft | 116 kts | 139° |
| 2026-04-12 20:00 | 36.43906 | -86.93491 | 2502 ft | 118 kts | 144° |
| 2026-04-12 20:01 | 36.43363 | -86.92744 | 2517 ft | 117 kts | 140° |
| 2026-04-12 20:01 | 36.42847 | -86.91992 | 2515 ft | 117 kts | 138° |
| 2026-04-12 20:01 | 36.42324 | -86.91210 | 2505 ft | 117 kts | 137° |
| 2026-04-12 20:01 | 36.41812 | -86.90432 | 2495 ft | 115 kts | 137° |
| 2026-04-12 20:02 | 36.41315 | -86.89671 | 2507 ft | 110 kts | 136° |
| 2026-04-12 20:02 | 36.40830 | -86.88925 | 2504 ft | 112 kts | 137° |
| 2026-04-12 20:02 | 36.40344 | -86.88185 | 2512 ft | 112 kts | 138° |
| 2026-04-12 20:02 | 36.39853 | -86.87434 | 2511 ft | 113 kts | 139° |
| 2026-04-12 20:03 | 36.39362 | -86.86683 | 2504 ft | 108 kts | 139° |
| 2026-04-12 20:03 | 36.38887 | -86.85950 | 2512 ft | 110 kts | 138° |
| 2026-04-12 20:03 | 36.38390 | -86.85197 | 2497 ft | 114 kts | 137° |
| 2026-04-12 20:03 | 36.37903 | -86.84423 | 2514 ft | 115 kts | 138° |
| 2026-04-12 20:04 | 36.37391 | -86.83663 | 2519 ft | 118 kts | 139° |
| 2026-04-12 20:04 | 36.36831 | -86.82937 | 2520 ft | 113 kts | 159° |
| 2026-04-12 20:04 | 36.36089 | -86.82857 | 2511 ft | 109 kts | 196° |
| 2026-04-12 20:04 | 36.35359 | -86.83109 | 2507 ft | 108 kts | 193° |
| 2026-04-12 20:05 | 36.34621 | -86.83322 | 2388 ft | 108 kts | 192° |
| 2026-04-12 20:05 | 36.33892 | -86.83593 | 2304 ft | 113 kts | 196° |
| 2026-04-12 20:05 | 36.33134 | -86.83836 | 2221 ft | 112 kts | 194° |
| 2026-04-12 20:05 | 36.32375 | -86.84082 | 2122 ft | 112 kts | 194° |